sensor_id;sensor_type;location;lat;lon;timestamp;temperature;humidity
326;DHT22;150;52.352;14.058;2024-02-23T00:01:43;9.60;54.30
326;DHT22;150;52.352;14.058;2024-02-23T00:04:10;9.70;54.10
326;DHT22;150;52.352;14.058;2024-02-23T00:06:37;9.70;53.60
326;DHT22;150;52.352;14.058;2024-02-23T00:09:05;9.70;53.40
326;DHT22;150;52.352;14.058;2024-02-23T00:11:31;9.80;53.20
326;DHT22;150;52.352;14.058;2024-02-23T00:13:58;9.80;52.80
326;DHT22;150;52.352;14.058;2024-02-23T00:16:25;9.70;52.50
326;DHT22;150;52.352;14.058;2024-02-23T00:18:52;9.80;52.60
326;DHT22;150;52.352;14.058;2024-02-23T00:21:19;9.70;52.10
326;DHT22;150;52.352;14.058;2024-02-23T00:23:45;9.80;51.90
326;DHT22;150;52.352;14.058;2024-02-23T00:26:13;9.70;51.80
326;DHT22;150;52.352;14.058;2024-02-23T00:28:40;9.70;51.80
326;DHT22;150;52.352;14.058;2024-02-23T00:31:06;9.70;51.40
326;DHT22;150;52.352;14.058;2024-02-23T00:33:33;9.70;51.40
326;DHT22;150;52.352;14.058;2024-02-23T00:36:00;9.80;51.40
326;DHT22;150;52.352;14.058;2024-02-23T00:38:26;9.80;50.60
326;DHT22;150;52.352;14.058;2024-02-23T00:40:53;9.80;50.50
326;DHT22;150;52.352;14.058;2024-02-23T00:43:21;9.80;50.30
326;DHT22;150;52.352;14.058;2024-02-23T00:45:48;9.80;50.40
326;DHT22;150;52.352;14.058;2024-02-23T00:48:14;9.80;50.40
326;DHT22;150;52.352;14.058;2024-02-23T00:50:41;9.80;50.30
326;DHT22;150;52.352;14.058;2024-02-23T00:53:07;9.70;50.20
326;DHT22;150;52.352;14.058;2024-02-23T00:55:34;9.80;50.10
326;DHT22;150;52.352;14.058;2024-02-23T00:58:00;9.80;49.90
326;DHT22;150;52.352;14.058;2024-02-23T01:00:30;9.80;49.80
326;DHT22;150;52.352;14.058;2024-02-23T01:02:56;9.70;49.70
326;DHT22;150;52.352;14.058;2024-02-23T01:05:25;9.70;49.70
326;DHT22;150;52.352;14.058;2024-02-23T01:07:51;9.80;49.80
326;DHT22;150;52.352;14.058;2024-02-23T01:10:18;9.80;49.70
326;DHT22;150;52.352;14.058;2024-02-23T01:12:45;9.90;49.70
326;DHT22;150;52.352;14.058;2024-02-23T01:15:11;9.90;48.50
326;DHT22;150;52.352;14.058;2024-02-23T01:17:39;10.00;48.40
326;DHT22;150;52.352;14.058;2024-02-23T01:20:07;10.00;48.00
326;DHT22;150;52.352;14.058;2024-02-23T01:22:34;10.00;47.80
326;DHT22;150;52.352;14.058;2024-02-23T01:25:00;10.00;47.60
326;DHT22;150;52.352;14.058;2024-02-23T01:27:27;10.00;47.50
326;DHT22;150;52.352;14.058;2024-02-23T01:29:54;10.00;47.20
326;DHT22;150;52.352;14.058;2024-02-23T01:32:20;10.00;47.50
326;DHT22;150;52.352;14.058;2024-02-23T01:34:48;10.00;47.20
326;DHT22;150;52.352;14.058;2024-02-23T01:37:15;9.90;47.00
326;DHT22;150;52.352;14.058;2024-02-23T01:39:41;10.00;46.30
326;DHT22;150;52.352;14.058;2024-02-23T01:42:08;10.00;46.20
326;DHT22;150;52.352;14.058;2024-02-23T01:44:35;10.10;45.50
326;DHT22;150;52.352;14.058;2024-02-23T01:47:01;10.10;44.90
326;DHT22;150;52.352;14.058;2024-02-23T01:49:28;10.20;45.00
326;DHT22;150;52.352;14.058;2024-02-23T01:52:00;10.20;45.00
326;DHT22;150;52.352;14.058;2024-02-23T01:54:27;10.30;44.50
326;DHT22;150;52.352;14.058;2024-02-23T01:56:55;10.30;43.50
326;DHT22;150;52.352;14.058;2024-02-23T01:59:22;10.30;43.30
326;DHT22;150;52.352;14.058;2024-02-23T02:01:49;10.30;43.00
326;DHT22;150;52.352;14.058;2024-02-23T02:04:16;10.30;43.40
326;DHT22;150;52.352;14.058;2024-02-23T02:06:45;10.20;43.50
326;DHT22;150;52.352;14.058;2024-02-23T02:09:13;10.30;43.70
326;DHT22;150;52.352;14.058;2024-02-23T02:11:45;10.30;43.40
326;DHT22;150;52.352;14.058;2024-02-23T02:14:12;10.30;43.10
326;DHT22;150;52.352;14.058;2024-02-23T02:16:39;10.40;42.40
326;DHT22;150;52.352;14.058;2024-02-23T02:19:05;10.40;42.00
326;DHT22;150;52.352;14.058;2024-02-23T02:21:33;10.40;41.70
326;DHT22;150;52.352;14.058;2024-02-23T02:24:00;10.40;41.80
326;DHT22;150;52.352;14.058;2024-02-23T02:26:27;10.40;41.70
326;DHT22;150;52.352;14.058;2024-02-23T02:28:54;10.50;41.20
326;DHT22;150;52.352;14.058;2024-02-23T02:31:21;10.50;40.70
326;DHT22;150;52.352;14.058;2024-02-23T02:33:48;10.40;39.10
326;DHT22;150;52.352;14.058;2024-02-23T02:36:14;10.50;39.40
326;DHT22;150;52.352;14.058;2024-02-23T02:38:41;10.40;39.50
326;DHT22;150;52.352;14.058;2024-02-23T02:41:08;10.40;38.30
326;DHT22;150;52.352;14.058;2024-02-23T02:43:36;10.40;38.70
326;DHT22;150;52.352;14.058;2024-02-23T02:46:03;10.40;38.20
326;DHT22;150;52.352;14.058;2024-02-23T02:48:30;10.50;37.20
326;DHT22;150;52.352;14.058;2024-02-23T02:50:56;10.40;36.50
326;DHT22;150;52.352;14.058;2024-02-23T02:53:23;10.40;34.60
326;DHT22;150;52.352;14.058;2024-02-23T02:55:50;10.40;32.70
326;DHT22;150;52.352;14.058;2024-02-23T02:58:16;10.50;33.20
326;DHT22;150;52.352;14.058;2024-02-23T03:00:44;10.40;33.50
326;DHT22;150;52.352;14.058;2024-02-23T03:03:11;10.40;29.90
326;DHT22;150;52.352;14.058;2024-02-23T03:05:38;10.40;29.60
326;DHT22;150;52.352;14.058;2024-02-23T03:08:06;10.40;26.40
326;DHT22;150;52.352;14.058;2024-02-23T03:10:32;10.30;26.50
326;DHT22;150;52.352;14.058;2024-02-23T03:12:59;10.20;25.00
326;DHT22;150;52.352;14.058;2024-02-23T03:15:26;10.20;23.50
326;DHT22;150;52.352;14.058;2024-02-23T03:17:55;10.10;22.70
326;DHT22;150;52.352;14.058;2024-02-23T03:20:22;10.10;22.20
326;DHT22;150;52.352;14.058;2024-02-23T03:22:51;10.00;22.10
326;DHT22;150;52.352;14.058;2024-02-23T03:25:18;10.00;22.90
326;DHT22;150;52.352;14.058;2024-02-23T03:27:45;10.00;23.10
326;DHT22;150;52.352;14.058;2024-02-23T03:30:12;9.90;22.30
326;DHT22;150;52.352;14.058;2024-02-23T03:32:39;9.90;21.90
326;DHT22;150;52.352;14.058;2024-02-23T03:35:08;9.90;21.50
326;DHT22;150;52.352;14.058;2024-02-23T03:37:34;9.80;22.00
326;DHT22;150;52.352;14.058;2024-02-23T03:40:01;9.80;21.50
326;DHT22;150;52.352;14.058;2024-02-23T03:42:30;9.70;22.60
326;DHT22;150;52.352;14.058;2024-02-23T03:44:56;9.70;22.50
326;DHT22;150;52.352;14.058;2024-02-23T03:47:23;9.70;22.30
326;DHT22;150;52.352;14.058;2024-02-23T03:49:50;9.80;22.40
326;DHT22;150;52.352;14.058;2024-02-23T03:52:18;9.70;22.10
326;DHT22;150;52.352;14.058;2024-02-23T03:54:44;9.50;22.50
326;DHT22;150;52.352;14.058;2024-02-23T03:57:11;9.50;22.10
326;DHT22;150;52.352;14.058;2024-02-23T03:59:37;9.60;22.20
326;DHT22;150;52.352;14.058;2024-02-23T04:02:04;9.50;21.60
326;DHT22;150;52.352;14.058;2024-02-23T04:04:31;9.50;22.10
326;DHT22;150;52.352;14.058;2024-02-23T04:06:57;9.50;22.50
326;DHT22;150;52.352;14.058;2024-02-23T04:09:25;9.50;21.30
326;DHT22;150;52.352;14.058;2024-02-23T04:11:52;9.50;21.60
326;DHT22;150;52.352;14.058;2024-02-23T04:14:19;9.50;21.20
326;DHT22;150;52.352;14.058;2024-02-23T04:16:45;9.50;22.20
326;DHT22;150;52.352;14.058;2024-02-23T04:19:12;9.50;22.10
326;DHT22;150;52.352;14.058;2024-02-23T04:21:38;9.50;21.60
326;DHT22;150;52.352;14.058;2024-02-23T04:24:05;9.40;22.50
326;DHT22;150;52.352;14.058;2024-02-23T04:26:33;9.30;22.50
326;DHT22;150;52.352;14.058;2024-02-23T04:28:59;9.30;23.30
326;DHT22;150;52.352;14.058;2024-02-23T04:31:26;9.20;22.30
326;DHT22;150;52.352;14.058;2024-02-23T04:33:53;9.10;22.20
326;DHT22;150;52.352;14.058;2024-02-23T04:36:20;9.10;22.70
326;DHT22;150;52.352;14.058;2024-02-23T04:38:47;9.10;22.70
326;DHT22;150;52.352;14.058;2024-02-23T04:41:13;9.10;22.30
326;DHT22;150;52.352;14.058;2024-02-23T04:43:41;9.20;21.80
326;DHT22;150;52.352;14.058;2024-02-23T04:46:08;9.00;22.10
326;DHT22;150;52.352;14.058;2024-02-23T04:48:43;9.00;22.10
326;DHT22;150;52.352;14.058;2024-02-23T04:51:10;8.90;22.60
326;DHT22;150;52.352;14.058;2024-02-23T04:53:39;8.90;22.50
326;DHT22;150;52.352;14.058;2024-02-23T04:56:06;8.90;22.30
326;DHT22;150;52.352;14.058;2024-02-23T04:58:32;8.90;22.10
326;DHT22;150;52.352;14.058;2024-02-23T05:01:00;8.90;22.10
326;DHT22;150;52.352;14.058;2024-02-23T05:03:28;8.80;21.40
326;DHT22;150;52.352;14.058;2024-02-23T05:05:55;8.80;22.60
326;DHT22;150;52.352;14.058;2024-02-23T05:08:22;8.60;21.20
326;DHT22;150;52.352;14.058;2024-02-23T05:10:49;8.60;21.90
326;DHT22;150;52.352;14.058;2024-02-23T05:13:16;8.50;21.50
326;DHT22;150;52.352;14.058;2024-02-23T05:15:43;8.40;20.90
326;DHT22;150;52.352;14.058;2024-02-23T05:18:11;8.40;21.90
326;DHT22;150;52.352;14.058;2024-02-23T05:20:37;8.30;20.90
326;DHT22;150;52.352;14.058;2024-02-23T05:23:04;8.30;20.50
326;DHT22;150;52.352;14.058;2024-02-23T05:25:31;8.30;21.20
326;DHT22;150;52.352;14.058;2024-02-23T05:27:57;8.30;20.20
326;DHT22;150;52.352;14.058;2024-02-23T05:30:24;8.30;19.90
326;DHT22;150;52.352;14.058;2024-02-23T05:32:52;8.30;20.10
326;DHT22;150;52.352;14.058;2024-02-23T05:35:20;8.20;20.00
326;DHT22;150;52.352;14.058;2024-02-23T05:37:47;8.20;19.50
326;DHT22;150;52.352;14.058;2024-02-23T05:40:14;8.20;19.30
326;DHT22;150;52.352;14.058;2024-02-23T05:42:41;8.20;19.50
326;DHT22;150;52.352;14.058;2024-02-23T05:45:08;8.20;19.10
326;DHT22;150;52.352;14.058;2024-02-23T05:47:36;8.20;18.70
326;DHT22;150;52.352;14.058;2024-02-23T05:50:03;8.20;19.30
326;DHT22;150;52.352;14.058;2024-02-23T05:52:32;8.10;19.30
326;DHT22;150;52.352;14.058;2024-02-23T05:54:59;8.10;19.50
326;DHT22;150;52.352;14.058;2024-02-23T05:57:26;8.10;18.60
326;DHT22;150;52.352;14.058;2024-02-23T05:59:53;8.10;19.20
326;DHT22;150;52.352;14.058;2024-02-23T06:02:31;8.00;18.40
326;DHT22;150;52.352;14.058;2024-02-23T06:05:04;7.90;19.90
326;DHT22;150;52.352;14.058;2024-02-23T06:07:52;7.90;20.20
326;DHT22;150;52.352;14.058;2024-02-23T06:10:28;7.80;20.20
326;DHT22;150;52.352;14.058;2024-02-23T06:13:04;7.80;20.00
326;DHT22;150;52.352;14.058;2024-02-23T06:15:33;7.80;20.30
326;DHT22;150;52.352;14.058;2024-02-23T06:18:04;7.80;20.00
326;DHT22;150;52.352;14.058;2024-02-23T06:20:31;7.80;20.40
326;DHT22;150;52.352;14.058;2024-02-23T06:23:11;7.80;20.90
326;DHT22;150;52.352;14.058;2024-02-23T06:25:43;7.80;20.30
326;DHT22;150;52.352;14.058;2024-02-23T06:28:13;7.70;21.10
326;DHT22;150;52.352;14.058;2024-02-23T06:30:45;7.70;20.60
326;DHT22;150;52.352;14.058;2024-02-23T06:33:18;7.80;21.10
326;DHT22;150;52.352;14.058;2024-02-23T06:35:52;7.80;21.00
326;DHT22;150;52.352;14.058;2024-02-23T06:38:23;7.80;21.10
326;DHT22;150;52.352;14.058;2024-02-23T06:40:49;7.80;21.30
326;DHT22;150;52.352;14.058;2024-02-23T06:43:16;7.80;21.30
326;DHT22;150;52.352;14.058;2024-02-23T06:45:43;7.80;21.40
326;DHT22;150;52.352;14.058;2024-02-23T06:48:20;7.90;21.10
326;DHT22;150;52.352;14.058;2024-02-23T06:50:56;8.00;20.40
326;DHT22;150;52.352;14.058;2024-02-23T06:53:45;8.00;20.40
326;DHT22;150;52.352;14.058;2024-02-23T06:56:17;8.10;20.60
326;DHT22;150;52.352;14.058;2024-02-23T06:58:52;8.10;20.60
326;DHT22;150;52.352;14.058;2024-02-23T07:01:47;8.20;20.60
326;DHT22;150;52.352;14.058;2024-02-23T07:04:28;8.20;20.00
326;DHT22;150;52.352;14.058;2024-02-23T07:07:10;8.20;20.40
326;DHT22;150;52.352;14.058;2024-02-23T07:10:03;8.30;20.10
326;DHT22;150;52.352;14.058;2024-02-23T07:12:37;8.30;20.20
326;DHT22;150;52.352;14.058;2024-02-23T07:15:10;8.40;20.40
326;DHT22;150;52.352;14.058;2024-02-23T07:17:54;8.50;20.20
326;DHT22;150;52.352;14.058;2024-02-23T07:20:29;8.50;20.50
326;DHT22;150;52.352;14.058;2024-02-23T07:23:01;8.70;20.40
326;DHT22;150;52.352;14.058;2024-02-23T07:25:41;8.80;20.60
326;DHT22;150;52.352;14.058;2024-02-23T07:28:28;8.90;20.70
326;DHT22;150;52.352;14.058;2024-02-23T07:30:58;9.00;20.30
326;DHT22;150;52.352;14.058;2024-02-23T07:33:25;9.00;19.90
326;DHT22;150;52.352;14.058;2024-02-23T07:35:52;9.10;20.40
326;DHT22;150;52.352;14.058;2024-02-23T07:38:18;9.10;20.80
326;DHT22;150;52.352;14.058;2024-02-23T07:40:46;9.10;21.30
326;DHT22;150;52.352;14.058;2024-02-23T07:43:13;9.10;21.70
326;DHT22;150;52.352;14.058;2024-02-23T07:45:55;9.10;22.30
326;DHT22;150;52.352;14.058;2024-02-23T07:48:41;9.10;23.00
326;DHT22;150;52.352;14.058;2024-02-23T07:51:13;8.90;23.70
326;DHT22;150;52.352;14.058;2024-02-23T07:54:00;9.00;24.20
326;DHT22;150;52.352;14.058;2024-02-23T07:56:42;8.90;24.20
326;DHT22;150;52.352;14.058;2024-02-23T07:59:19;9.00;24.20
326;DHT22;150;52.352;14.058;2024-02-23T08:02:04;9.00;24.40
326;DHT22;150;52.352;14.058;2024-02-23T08:04:44;9.00;24.20
326;DHT22;150;52.352;14.058;2024-02-23T08:07:21;8.90;24.10
326;DHT22;150;52.352;14.058;2024-02-23T08:09:51;8.90;24.30
326;DHT22;150;52.352;14.058;2024-02-23T08:12:19;9.00;23.80
326;DHT22;150;52.352;14.058;2024-02-23T08:14:45;9.10;23.20
326;DHT22;150;52.352;14.058;2024-02-23T08:17:14;9.10;23.50
326;DHT22;150;52.352;14.058;2024-02-23T08:19:41;9.20;22.80
326;DHT22;150;52.352;14.058;2024-02-23T08:22:08;9.30;23.00
326;DHT22;150;52.352;14.058;2024-02-23T08:24:34;9.30;22.30
326;DHT22;150;52.352;14.058;2024-02-23T08:27:01;9.20;22.40
326;DHT22;150;52.352;14.058;2024-02-23T08:29:37;9.20;21.70
326;DHT22;150;52.352;14.058;2024-02-23T08:32:07;9.10;21.70
326;DHT22;150;52.352;14.058;2024-02-23T08:34:40;9.10;22.20
326;DHT22;150;52.352;14.058;2024-02-23T08:37:19;9.10;22.40
326;DHT22;150;52.352;14.058;2024-02-23T08:39:48;9.20;22.40
326;DHT22;150;52.352;14.058;2024-02-23T08:42:16;9.20;22.30
326;DHT22;150;52.352;14.058;2024-02-23T08:44:50;9.20;21.80
326;DHT22;150;52.352;14.058;2024-02-23T08:47:26;9.20;22.10
326;DHT22;150;52.352;14.058;2024-02-23T08:50:00;9.30;22.30
326;DHT22;150;52.352;14.058;2024-02-23T08:52:42;9.40;21.80
326;DHT22;150;52.352;14.058;2024-02-23T08:55:12;9.30;21.40
326;DHT22;150;52.352;14.058;2024-02-23T08:57:44;9.30;21.20
326;DHT22;150;52.352;14.058;2024-02-23T09:00:23;9.30;21.90
326;DHT22;150;52.352;14.058;2024-02-23T09:02:57;9.30;21.70
326;DHT22;150;52.352;14.058;2024-02-23T09:05:33;9.30;22.20
326;DHT22;150;52.352;14.058;2024-02-23T09:08:12;9.20;21.80
326;DHT22;150;52.352;14.058;2024-02-23T09:10:42;9.10;22.00
326;DHT22;150;52.352;14.058;2024-02-23T09:13:24;9.10;22.00
326;DHT22;150;52.352;14.058;2024-02-23T09:15:57;9.30;22.20
326;DHT22;150;52.352;14.058;2024-02-23T09:18:29;9.20;22.00
326;DHT22;150;52.352;14.058;2024-02-23T09:20:56;9.30;21.40
326;DHT22;150;52.352;14.058;2024-02-23T09:23:33;9.30;21.30
326;DHT22;150;52.352;14.058;2024-02-23T09:26:09;9.20;20.10
326;DHT22;150;52.352;14.058;2024-02-23T09:28:36;9.30;20.10
326;DHT22;150;52.352;14.058;2024-02-23T09:31:04;9.30;20.80
326;DHT22;150;52.352;14.058;2024-02-23T09:33:31;9.50;21.30
326;DHT22;150;52.352;14.058;2024-02-23T09:36:04;9.60;20.90
326;DHT22;150;52.352;14.058;2024-02-23T09:38:39;9.70;20.30
326;DHT22;150;52.352;14.058;2024-02-23T09:41:11;9.70;19.20
326;DHT22;150;52.352;14.058;2024-02-23T09:43:42;9.70;19.50
326;DHT22;150;52.352;14.058;2024-02-23T09:46:12;9.60;19.00
326;DHT22;150;52.352;14.058;2024-02-23T09:48:39;9.50;19.80
326;DHT22;150;52.352;14.058;2024-02-23T09:51:06;9.70;19.50
326;DHT22;150;52.352;14.058;2024-02-23T09:53:37;9.80;18.90
326;DHT22;150;52.352;14.058;2024-02-23T09:56:05;9.90;18.40
326;DHT22;150;52.352;14.058;2024-02-23T09:58:32;9.90;18.40
326;DHT22;150;52.352;14.058;2024-02-23T10:01:02;9.90;17.80
326;DHT22;150;52.352;14.058;2024-02-23T10:03:30;9.80;18.00
326;DHT22;150;52.352;14.058;2024-02-23T10:05:59;9.80;17.10
326;DHT22;150;52.352;14.058;2024-02-23T10:08:32;9.90;18.10
326;DHT22;150;52.352;14.058;2024-02-23T10:11:00;10.10;18.70
326;DHT22;150;52.352;14.058;2024-02-23T10:13:29;10.20;18.80
326;DHT22;150;52.352;14.058;2024-02-23T10:15:56;10.40;18.70
326;DHT22;150;52.352;14.058;2024-02-23T10:18:23;10.40;17.70
326;DHT22;150;52.352;14.058;2024-02-23T10:20:51;10.50;18.00
326;DHT22;150;52.352;14.058;2024-02-23T10:23:30;10.40;16.70
326;DHT22;150;52.352;14.058;2024-02-23T10:26:12;10.40;16.70
326;DHT22;150;52.352;14.058;2024-02-23T10:28:51;10.40;17.10
326;DHT22;150;52.352;14.058;2024-02-23T10:31:22;10.10;16.90
326;DHT22;150;52.352;14.058;2024-02-23T10:33:50;10.00;18.00
326;DHT22;150;52.352;14.058;2024-02-23T10:43:29;10.40;17.60
326;DHT22;150;52.352;14.058;2024-02-23T10:46:12;10.70;16.60
326;DHT22;150;52.352;14.058;2024-02-23T10:48:43;10.90;16.80
326;DHT22;150;52.352;14.058;2024-02-23T10:51:21;11.10;15.30
326;DHT22;150;52.352;14.058;2024-02-23T10:53:56;11.00;15.70
326;DHT22;150;52.352;14.058;2024-02-23T10:56:28;10.90;14.90
326;DHT22;150;52.352;14.058;2024-02-23T10:58:56;10.70;14.70
326;DHT22;150;52.352;14.058;2024-02-23T11:01:29;10.60;14.70
326;DHT22;150;52.352;14.058;2024-02-23T11:04:02;10.60;14.80
326;DHT22;150;52.352;14.058;2024-02-23T11:06:28;10.70;15.20
326;DHT22;150;52.352;14.058;2024-02-23T11:09:06;10.80;14.80
326;DHT22;150;52.352;14.058;2024-02-23T11:11:34;10.80;14.70
326;DHT22;150;52.352;14.058;2024-02-23T11:14:03;10.60;14.50
326;DHT22;150;52.352;14.058;2024-02-23T11:16:38;10.60;13.80
326;DHT22;150;52.352;14.058;2024-02-23T11:19:06;10.40;13.80
326;DHT22;150;52.352;14.058;2024-02-23T11:21:35;10.20;13.20
326;DHT22;150;52.352;14.058;2024-02-23T11:24:04;10.10;14.00
326;DHT22;150;52.352;14.058;2024-02-23T11:26:31;10.00;14.70
326;DHT22;150;52.352;14.058;2024-02-23T11:29:09;9.90;13.70
326;DHT22;150;52.352;14.058;2024-02-23T11:31:51;9.90;13.70
326;DHT22;150;52.352;14.058;2024-02-23T11:34:34;10.00;14.40
326;DHT22;150;52.352;14.058;2024-02-23T11:37:12;10.30;14.20
326;DHT22;150;52.352;14.058;2024-02-23T11:39:53;10.40;13.10
326;DHT22;150;52.352;14.058;2024-02-23T11:42:33;10.70;14.20
326;DHT22;150;52.352;14.058;2024-02-23T11:45:04;11.00;13.30
326;DHT22;150;52.352;14.058;2024-02-23T11:47:33;11.20;13.30
326;DHT22;150;52.352;14.058;2024-02-23T11:50:01;11.10;12.10
326;DHT22;150;52.352;14.058;2024-02-23T11:52:28;11.20;12.50
326;DHT22;150;52.352;14.058;2024-02-23T11:54:55;11.40;12.70
326;DHT22;150;52.352;14.058;2024-02-23T11:57:28;11.40;12.10
326;DHT22;150;52.352;14.058;2024-02-23T11:59:56;11.10;11.90
326;DHT22;150;52.352;14.058;2024-02-23T12:02:23;10.90;12.00
326;DHT22;150;52.352;14.058;2024-02-23T12:04:55;10.80;12.80
326;DHT22;150;52.352;14.058;2024-02-23T12:07:22;10.70;13.10
326;DHT22;150;52.352;14.058;2024-02-23T12:09:48;10.70;13.30
326;DHT22;150;52.352;14.058;2024-02-23T12:12:15;10.60;13.90
326;DHT22;150;52.352;14.058;2024-02-23T12:14:42;10.60;14.20
326;DHT22;150;52.352;14.058;2024-02-23T12:17:13;10.40;14.00
326;DHT22;150;52.352;14.058;2024-02-23T12:19:40;10.40;14.30
326;DHT22;150;52.352;14.058;2024-02-23T12:22:07;10.50;14.60
326;DHT22;150;52.352;14.058;2024-02-23T12:24:34;10.70;14.60
326;DHT22;150;52.352;14.058;2024-02-23T12:27:01;10.70;13.50
326;DHT22;150;52.352;14.058;2024-02-23T12:29:31;10.70;13.80
326;DHT22;150;52.352;14.058;2024-02-23T12:32:07;10.80;14.70
326;DHT22;150;52.352;14.058;2024-02-23T12:34:39;10.90;13.20
326;DHT22;150;52.352;14.058;2024-02-23T12:37:07;11.00;13.60
326;DHT22;150;52.352;14.058;2024-02-23T12:39:36;11.10;12.40
326;DHT22;150;52.352;14.058;2024-02-23T12:42:09;10.80;12.60
326;DHT22;150;52.352;14.058;2024-02-23T12:44:43;10.70;13.10
326;DHT22;150;52.352;14.058;2024-02-23T12:47:10;10.50;14.10
326;DHT22;150;52.352;14.058;2024-02-23T12:49:37;10.50;14.30
326;DHT22;150;52.352;14.058;2024-02-23T12:52:06;10.40;14.10
326;DHT22;150;52.352;14.058;2024-02-23T12:54:42;10.40;14.40
326;DHT22;150;52.352;14.058;2024-02-23T12:57:08;10.40;14.10
326;DHT22;150;52.352;14.058;2024-02-23T12:59:48;10.30;13.80
326;DHT22;150;52.352;14.058;2024-02-23T13:02:17;10.40;14.50
326;DHT22;150;52.352;14.058;2024-02-23T13:05:01;10.50;14.70
326;DHT22;150;52.352;14.058;2024-02-23T13:07:30;10.60;14.20
326;DHT22;150;52.352;14.058;2024-02-23T13:10:04;10.60;13.40
326;DHT22;150;52.352;14.058;2024-02-23T13:12:31;10.60;14.20
326;DHT22;150;52.352;14.058;2024-02-23T13:14:58;10.70;13.90
326;DHT22;150;52.352;14.058;2024-02-23T13:17:24;10.80;14.10
326;DHT22;150;52.352;14.058;2024-02-23T13:19:53;10.80;13.30
326;DHT22;150;52.352;14.058;2024-02-23T13:22:20;10.70;13.10
326;DHT22;150;52.352;14.058;2024-02-23T13:24:48;10.70;13.10
326;DHT22;150;52.352;14.058;2024-02-23T13:27:14;10.70;12.80
326;DHT22;150;52.352;14.058;2024-02-23T13:29:41;10.60;12.60
326;DHT22;150;52.352;14.058;2024-02-23T13:32:08;10.60;12.90
326;DHT22;150;52.352;14.058;2024-02-23T13:34:34;10.50;13.60
326;DHT22;150;52.352;14.058;2024-02-23T13:37:01;10.60;13.60
326;DHT22;150;52.352;14.058;2024-02-23T13:39:27;10.50;13.00
326;DHT22;150;52.352;14.058;2024-02-23T13:41:56;10.60;13.00
326;DHT22;150;52.352;14.058;2024-02-23T13:44:22;10.40;12.60
326;DHT22;150;52.352;14.058;2024-02-23T13:46:49;10.30;12.70
326;DHT22;150;52.352;14.058;2024-02-23T13:49:15;10.10;13.50
326;DHT22;150;52.352;14.058;2024-02-23T13:51:42;10.00;13.50
326;DHT22;150;52.352;14.058;2024-02-23T13:54:17;10.10;13.40
326;DHT22;150;52.352;14.058;2024-02-23T13:56:45;10.10;13.70
326;DHT22;150;52.352;14.058;2024-02-23T13:59:14;10.20;14.00
326;DHT22;150;52.352;14.058;2024-02-23T14:01:40;10.10;13.60
326;DHT22;150;52.352;14.058;2024-02-23T14:04:07;10.20;13.50
326;DHT22;150;52.352;14.058;2024-02-23T14:06:34;10.20;13.20
326;DHT22;150;52.352;14.058;2024-02-23T14:09:08;10.20;13.70
326;DHT22;150;52.352;14.058;2024-02-23T14:11:41;10.20;13.30
326;DHT22;150;52.352;14.058;2024-02-23T14:14:08;10.10;13.30
326;DHT22;150;52.352;14.058;2024-02-23T14:16:36;10.00;13.20
326;DHT22;150;52.352;14.058;2024-02-23T14:19:03;10.00;13.40
326;DHT22;150;52.352;14.058;2024-02-23T14:21:29;10.00;13.20
326;DHT22;150;52.352;14.058;2024-02-23T14:23:56;10.00;13.40
326;DHT22;150;52.352;14.058;2024-02-23T14:26:23;10.00;13.90
326;DHT22;150;52.352;14.058;2024-02-23T14:28:50;10.00;13.70
326;DHT22;150;52.352;14.058;2024-02-23T14:31:19;10.10;14.40
326;DHT22;150;52.352;14.058;2024-02-23T14:34:03;10.10;13.40
326;DHT22;150;52.352;14.058;2024-02-23T14:36:49;10.10;13.70
326;DHT22;150;52.352;14.058;2024-02-23T14:39:20;10.10;13.30
326;DHT22;150;52.352;14.058;2024-02-23T14:41:58;10.10;13.20
326;DHT22;150;52.352;14.058;2024-02-23T14:44:25;10.00;12.80
326;DHT22;150;52.352;14.058;2024-02-23T14:47:00;9.90;13.20
326;DHT22;150;52.352;14.058;2024-02-23T14:49:29;9.70;13.80
326;DHT22;150;52.352;14.058;2024-02-23T14:52:00;9.60;14.10
326;DHT22;150;52.352;14.058;2024-02-23T14:54:33;9.40;14.30
326;DHT22;150;52.352;14.058;2024-02-23T14:57:05;9.40;14.50
326;DHT22;150;52.352;14.058;2024-02-23T14:59:35;9.50;14.70
326;DHT22;150;52.352;14.058;2024-02-23T15:02:23;9.60;14.90
326;DHT22;150;52.352;14.058;2024-02-23T15:04:54;9.70;15.30
326;DHT22;150;52.352;14.058;2024-02-23T15:07:31;9.80;14.70
326;DHT22;150;52.352;14.058;2024-02-23T15:09:58;10.00;14.70
326;DHT22;150;52.352;14.058;2024-02-23T15:12:28;10.00;14.20
326;DHT22;150;52.352;14.058;2024-02-23T15:14:54;10.00;14.30
326;DHT22;150;52.352;14.058;2024-02-23T15:17:24;10.00;14.60
326;DHT22;150;52.352;14.058;2024-02-23T15:19:50;9.80;15.40
326;DHT22;150;52.352;14.058;2024-02-23T15:22:24;9.70;14.80
326;DHT22;150;52.352;14.058;2024-02-23T15:24:57;9.70;15.50
326;DHT22;150;52.352;14.058;2024-02-23T15:27:29;9.80;16.00
326;DHT22;150;52.352;14.058;2024-02-23T15:29:59;9.80;15.50
326;DHT22;150;52.352;14.058;2024-02-23T15:32:26;9.60;15.80
326;DHT22;150;52.352;14.058;2024-02-23T15:34:58;9.50;15.80
326;DHT22;150;52.352;14.058;2024-02-23T15:37:26;9.50;15.80
326;DHT22;150;52.352;14.058;2024-02-23T15:40:03;9.30;16.10
326;DHT22;150;52.352;14.058;2024-02-23T15:42:33;9.40;16.40
326;DHT22;150;52.352;14.058;2024-02-23T15:45:06;9.40;16.50
326;DHT22;150;52.352;14.058;2024-02-23T15:47:33;9.40;16.90
326;DHT22;150;52.352;14.058;2024-02-23T15:50:00;9.30;16.90
326;DHT22;150;52.352;14.058;2024-02-23T15:52:28;9.30;16.60
326;DHT22;150;52.352;14.058;2024-02-23T15:54:55;9.20;17.30
326;DHT22;150;52.352;14.058;2024-02-23T15:57:22;9.10;16.60
326;DHT22;150;52.352;14.058;2024-02-23T15:59:48;9.00;16.50
326;DHT22;150;52.352;14.058;2024-02-23T16:02:15;8.80;15.30
326;DHT22;150;52.352;14.058;2024-02-23T16:04:42;8.80;16.30
326;DHT22;150;52.352;14.058;2024-02-23T16:07:08;8.70;15.70
326;DHT22;150;52.352;14.058;2024-02-23T16:09:46;8.60;16.20
326;DHT22;150;52.352;14.058;2024-02-23T16:12:13;8.60;16.20
326;DHT22;150;52.352;14.058;2024-02-23T16:14:44;8.50;15.90
326;DHT22;150;52.352;14.058;2024-02-23T16:17:16;8.50;16.20
326;DHT22;150;52.352;14.058;2024-02-23T16:19:48;8.40;16.40
326;DHT22;150;52.352;14.058;2024-02-23T16:22:15;8.50;16.00
326;DHT22;150;52.352;14.058;2024-02-23T16:24:52;8.40;16.40
326;DHT22;150;52.352;14.058;2024-02-23T16:28:06;8.30;16.70
326;DHT22;150;52.352;14.058;2024-02-23T16:30:52;8.40;16.80
326;DHT22;150;52.352;14.058;2024-02-23T16:33:23;8.30;16.70
326;DHT22;150;52.352;14.058;2024-02-23T16:35:50;8.40;16.70
326;DHT22;150;52.352;14.058;2024-02-23T16:38:16;8.40;16.30
326;DHT22;150;52.352;14.058;2024-02-23T16:40:44;8.40;16.30
326;DHT22;150;52.352;14.058;2024-02-23T16:43:11;8.30;16.70
326;DHT22;150;52.352;14.058;2024-02-23T16:45:38;8.30;16.60
326;DHT22;150;52.352;14.058;2024-02-23T16:48:06;8.30;16.50
326;DHT22;150;52.352;14.058;2024-02-23T16:50:35;8.30;16.50
326;DHT22;150;52.352;14.058;2024-02-23T16:53:02;8.20;16.80